Time;durP1;ratioP1;P1;durP2;ratioP2;P2;SDS_P1;SDS_P2;PMS_P1;PMS_P2;Temp;Humidity;BMP_temperature;BMP_pressure;BME280_temperature;BME280_humidity;BME280_pressure;Samples;Min_cycle;Max_cycle;Signal;HPM_P1;HPM_P2
2022/05/08 00:00:01;;;;;;;14.50;7.78;;;;;;;11.48;93.07;102910.50;7388561;19;20039;-78
2022/05/08 00:02:34;;;;;;;13.40;6.85;;;;;;;11.55;92.28;102916.94;7385358;19;20014;-71
2022/05/08 00:05:04;;;;;;;14.75;7.32;;;;;;;11.51;92.63;102915.00;7386690;19;20377;-72
2022/05/08 00:07:34;;;;;;;14.10;6.90;;;;;;;11.51;92.27;102912.38;7385301;19;20039;-71
2022/05/08 00:10:04;;;;;;;13.60;6.28;;;;;;;11.51;91.96;102915.00;7388348;19;20015;-71
2022/05/08 00:12:35;;;;;;;14.48;6.82;;;;;;;11.48;92.31;102918.41;7382888;19;20039;-70
2022/05/08 00:15:07;;;;;;;13.38;6.78;;;;;;;11.47;92.22;102908.72;7379652;19;20050;-77
2022/05/08 00:17:40;;;;;;;15.38;6.20;;;;;;;11.45;91.83;102907.75;7377918;19;20036;-71
2022/05/08 00:20:12;;;;;;;16.85;6.35;;;;;;;11.45;92.15;102910.38;7378868;19;20011;-71
2022/05/08 00:22:45;;;;;;;16.95;6.78;;;;;;;11.44;92.57;102908.59;7382665;19;20121;-70
2022/05/08 00:25:18;;;;;;;14.95;6.65;;;;;;;11.47;92.69;102907.81;7379745;19;20038;-72
2022/05/08 00:27:51;;;;;;;15.93;6.75;;;;;;;11.45;92.76;102915.63;7377870;19;20042;-76
2022/05/08 00:30:23;;;;;;;16.58;7.45;;;;;;;11.43;92.65;102912.09;7383850;19;20074;-79
2022/05/08 00:32:55;;;;;;;17.25;6.78;;;;;;;11.39;93.39;102904.91;7380305;19;20017;-77
2022/05/08 00:35:26;;;;;;;13.88;7.22;;;;;;;11.38;93.10;102910.09;7384405;19;20489;-78
2022/05/08 00:37:59;;;;;;;14.68;7.00;;;;;;;11.35;92.39;102908.22;7385104;19;20015;-78
2022/05/08 00:40:30;;;;;;;15.38;6.03;;;;;;;11.39;91.67;102904.91;7379101;19;20066;-70
2022/05/08 00:43:20;;;;;;;14.23;6.50;;;;;;;11.22;88.92;102910.25;7377852;19;20038;-71
2022/05/08 00:45:55;;;;;;;15.13;6.00;;;;;;;11.20;88.87;102906.66;7380025;19;20082;-76
2022/05/08 00:48:25;;;;;;;17.02;6.72;;;;;;;11.23;88.63;102912.06;7378480;19;20024;-77
2022/05/08 00:50:57;;;;;;;12.73;5.90;;;;;;;11.19;88.53;102913.66;7378287;19;20037;-71
2022/05/08 00:53:36;;;;;;;15.23;5.75;;;;;;;11.19;88.61;102915.38;7374143;19;20070;-71
2022/05/08 00:56:10;;;;;;;15.77;7.18;;;;;;;11.11;88.52;102912.41;7376251;19;20045;-71
2022/05/08 00:58:42;;;;;;;15.32;6.20;;;;;;;11.16;88.72;102905.63;7380771;19;20014;-78
2022/05/08 01:01:14;;;;;;;20.13;6.45;;;;;;;11.02;88.97;102909.38;7387632;19;20047;-72
2022/05/08 01:03:47;;;;;;;19.92;6.55;;;;;;;11.04;89.05;102905.09;7384930;19;20014;-79
2022/05/08 01:06:21;;;;;;;15.18;5.78;;;;;;;11.05;89.27;102904.28;7388872;19;20023;-78
2022/05/08 01:08:54;;;;;;;15.38;5.85;;;;;;;10.92;88.93;102904.56;7383686;19;20070;-72
2022/05/08 01:11:24;;;;;;;16.23;5.50;;;;;;;10.94;89.21;102900.28;7389191;19;20007;-78
2022/05/08 01:13:54;;;;;;;14.15;6.38;;;;;;;10.81;89.75;102906.69;7385248;19;20014;-71
2022/05/08 01:16:27;;;;;;;13.52;5.88;;;;;;;10.78;90.16;102907.47;7386438;19;20017;-71
2022/05/08 01:18:57;;;;;;;14.13;5.45;;;;;;;10.63;91.11;102896.25;7379375;19;20083;-71
2022/05/08 01:21:42;;;;;;;17.13;6.68;;;;;;;10.57;91.20;102903.84;7385327;19;20127;-72
2022/05/08 01:24:14;;;;;;;19.38;6.32;;;;;;;10.54;91.97;102911.59;7388035;19;20022;-71
2022/05/08 01:26:44;;;;;;;20.23;6.70;;;;;;;10.48;92.36;102903.44;7387839;19;20098;-71
2022/05/08 01:29:14;;;;;;;19.20;6.47;;;;;;;10.44;92.60;102905.00;7384086;19;20034;-70
2022/05/08 01:31:43;;;;;;;15.60;5.88;;;;;;;10.41;93.17;102909.22;7384187;19;20014;-71
2022/05/08 01:34:13;;;;;;;14.73;6.05;;;;;;;10.32;93.18;102909.72;7383794;19;20081;-77
2022/05/08 01:36:48;;;;;;;20.20;7.00;;;;;;;10.28;93.28;102914.75;7387138;19;20011;-70
2022/05/08 01:39:18;;;;;;;15.48;6.78;;;;;;;10.17;94.14;102911.56;7386651;19;20027;-77
2022/05/08 01:41:48;;;;;;;16.45;5.78;;;;;;;10.11;94.44;102912.19;7383758;19;20011;-70
2022/05/08 01:44:25;;;;;;;20.35;6.45;;;;;;;10.05;94.50;102906.63;7386311;19;20036;-70
2022/05/08 01:48:21;;;;;;;23.83;7.53;;;;;;;9.99;94.82;102914.22;7385942;19;20654;-77
2022/05/08 01:49:42;;;;;;;24.23;7.40;;;;;;;9.90;95.66;102910.25;7386848;19;20023;-71
2022/05/08 01:52:18;;;;;;;19.45;6.47;;;;;;;9.88;95.45;102919.75;7386241;19;20051;-71
2022/05/08 01:54:48;;;;;;;19.35;7.03;;;;;;;9.76;96.44;102912.19;7384285;19;20301;-71
2022/05/08 01:57:20;;;;;;;13.93;5.80;;;;;;;9.77;96.35;102917.50;7383036;19;20011;-70
2022/05/08 01:59:50;;;;;;;18.02;6.13;;;;;;;9.67;96.64;102923.09;7382734;19;20035;-71
2022/05/08 02:02:22;;;;;;;12.65;5.40;;;;;;;9.66;96.26;102917.78;7386749;19;20006;-70
2022/05/08 02:04:53;;;;;;;21.65;6.15;;;;;;;9.64;97.00;102919.44;7384553;19;20025;-71
2022/05/08 02:07:28;;;;;;;15.80;5.88;;;;;;;9.54;97.67;102927.66;7388755;19;20062;-71
2022/05/08 02:09:58;;;;;;;20.52;6.53;;;;;;;9.54;97.65;102923.31;7382743;19;20696;-77
2022/05/08 02:12:28;;;;;;;15.65;5.97;;;;;;;9.50;97.80;102922.25;7382179;19;20475;-78
2022/05/08 02:14:58;;;;;;;15.85;6.40;;;;;;;9.42;97.96;102926.19;7384433;19;20007;-72
2022/05/08 02:17:28;;;;;;;18.83;6.28;;;;;;;9.38;98.65;102939.06;7383999;19;20043;-71
2022/05/08 02:20:02;;;;;;;12.35;5.78;;;;;;;9.41;98.19;102934.88;7380412;19;20019;-71
2022/05/08 02:22:35;;;;;;;16.33;5.47;;;;;;;9.34;98.37;102929.28;7385410;19;20014;-78
2022/05/08 02:25:07;;;;;;;22.27;7.32;;;;;;;9.31;98.70;102937.88;7384239;19;20412;-74
2022/05/08 02:27:40;;;;;;;19.50;5.97;;;;;;;9.23;98.85;102939.19;7382555;19;20039;-72
2022/05/08 02:30:11;;;;;;;;;;;;;;;9.25;98.91;102929.72;7384819;19;20010;-72
2022/05/08 02:32:42;;;;;;;12.00;5.35;;;;;;;9.17;99.27;102936.25;7380716;19;19919;-72
2022/05/08 02:35:12;;;;;;;19.90;6.63;;;;;;;9.12;99.09;102936.03;7386291;19;20015;-72
2022/05/08 02:37:48;;;;;;;18.80;6.35;;;;;;;9.10;99.32;102937.66;7381185;19;20011;-71
2022/05/08 02:40:20;;;;;;;22.98;6.20;;;;;;;9.07;99.92;102941.84;7386129;19;20047;-71
2022/05/08 02:42:54;;;;;;;16.02;6.35;;;;;;;9.10;99.45;102945.50;7391410;19;20003;-80
2022/05/08 02:45:26;;;;;;;18.92;6.97;;;;;;;9.11;99.48;102936.84;7390488;19;20007;-78
2022/05/08 02:47:57;;;;;;;22.08;6.10;;;;;;;9.05;99.45;102946.09;7389936;19;20010;-78
2022/05/08 02:50:27;;;;;;;15.13;5.35;;;;;;;8.98;99.57;102939.63;7389743;19;20047;-78
2022/05/08 02:52:59;;;;;;;19.00;6.13;;;;;;;8.95;99.50;102939.47;7384985;19;20043;-78
2022/05/08 03:00:56;;;;;;;16.02;5.55;;;;;;;8.92;99.58;102951.47;7382600;19;20003;-79
2022/05/08 03:03:26;;;;;;;14.55;5.10;;;;;;;8.93;99.45;102950.66;7385683;19;20060;-77
2022/05/08 03:05:56;;;;;;;13.75;5.57;;;;;;;8.92;99.07;102959.34;7384414;19;20016;-77
2022/05/08 03:08:29;;;;;;;15.02;5.38;;;;;;;8.82;99.19;102966.69;7385350;19;20046;-77
2022/05/08 03:13:44;;;;;;;16.88;4.80;;;;;;;8.74;98.93;102959.25;7388149;19;20002;-79
2022/05/08 03:16:21;;;;;;;18.80;5.43;;;;;;;8.72;98.67;102966.09;7391255;19;20031;-78
2022/05/08 03:18:53;;;;;;;14.65;4.95;;;;;;;8.63;98.93;102960.38;7392814;19;20014;-77
2022/05/08 03:21:22;;;;;;;22.50;4.78;;;;;;;8.56;98.96;102959.13;7389076;19;20006;-78
2022/05/08 03:23:55;;;;;;;15.18;4.95;;;;;;;8.60;98.19;102968.94;7388734;19;20437;-70
2022/05/08 03:26:28;;;;;;;13.05;4.40;;;;;;;8.49;97.84;102957.91;7387828;19;20015;-73
2022/05/08 03:28:58;;;;;;;16.67;4.93;;;;;;;8.45;98.29;102961.16;7390511;19;20371;-77
2022/05/08 03:31:28;;;;;;;17.80;5.30;;;;;;;8.45;97.76;102961.16;7385270;19;20014;-77
2022/05/08 03:33:58;;;;;;;15.38;4.95;;;;;;;8.43;97.95;102969.72;7384154;19;20113;-77
2022/05/08 03:36:28;;;;;;;13.90;4.15;;;;;;;8.37;97.59;102974.63;7381548;19;20014;-71
2022/05/08 03:39:00;;;;;;;18.13;5.00;;;;;;;8.35;97.64;102969.31;7380451;19;20026;-71
2022/05/08 03:41:30;;;;;;;19.23;4.45;;;;;;;8.34;97.07;102972.72;7379725;19;20015;-71
2022/05/08 03:43:59;;;;;;;19.42;4.25;;;;;;;8.26;97.36;102975.72;7378950;19;20018;-71
2022/05/08 03:46:39;;;;;;;16.75;4.03;;;;;;;8.28;97.41;102976.72;7382675;19;20014;-72
2022/05/08 03:49:11;;;;;;;17.33;4.68;;;;;;;8.22;97.43;102974.66;7382721;19;21661;-78
2022/05/08 03:51:42;;;;;;;14.88;4.00;;;;;;;8.23;97.29;102979.06;7383807;19;20039;-77
2022/05/08 03:54:17;;;;;;;13.38;4.20;;;;;;;8.19;97.09;102970.16;7380257;19;20039;-78
2022/05/08 03:56:47;;;;;;;13.98;3.78;;;;;;;8.19;97.09;102977.09;7380983;19;20013;-70
2022/05/08 03:59:19;;;;;;;22.00;4.63;;;;;;;8.12;97.31;102977.56;7380393;19;20069;-70
2022/05/08 04:01:54;;;;;;;15.93;4.78;;;;;;;8.15;97.17;102977.72;7380042;19;20010;-77
2022/05/08 04:04:25;;;;;;;13.40;4.25;;;;;;;8.15;97.21;102982.94;7385868;19;20014;-73
2022/05/08 04:06:56;;;;;;;15.43;4.15;;;;;;;8.17;96.88;102978.72;7383611;19;20014;-78
2022/05/08 04:09:29;;;;;;;16.83;4.00;;;;;;;8.11;97.16;102984.50;7384553;19;20014;-78
2022/05/08 04:12:00;;;;;;;18.00;5.03;;;;;;;8.05;96.91;102983.25;7377134;19;20007;-79
2022/05/08 04:14:30;;;;;;;11.15;4.38;;;;;;;8.06;96.90;102985.94;7383030;19;20019;-78
2022/05/08 04:17:00;;;;;;;16.65;4.82;;;;;;;8.03;97.06;102980.53;7380429;19;20043;-73
2022/05/08 04:19:30;;;;;;;15.57;6.07;;;;;;;8.06;96.87;102985.94;7384359;19;20488;-71
2022/05/08 04:24:48;;;;;;;14.53;4.77;;;;;;;8.06;96.99;102993.78;7383415;19;20617;-78
2022/05/08 04:27:20;;;;;;;11.52;3.97;;;;;;;8.03;96.59;103004.06;7380937;19;20015;-78
2022/05/08 04:29:52;;;;;;;12.98;4.47;;;;;;;8.06;96.46;103001.63;7382429;19;20082;-77
2022/05/08 04:32:22;;;;;;;12.75;3.50;;;;;;;8.05;96.45;102999.81;7386102;19;20646;-77
2022/05/08 04:34:52;;;;;;;20.52;4.60;;;;;;;8.11;96.23;103000.16;7386193;19;20047;-71
2022/05/08 04:37:27;;;;;;;14.88;4.47;;;;;;;8.06;96.31;103000.72;7386638;19;20070;-77
2022/05/08 04:39:59;;;;;;;16.42;4.40;;;;;;;8.06;96.21;103009.47;7392393;19;20700;-78
2022/05/08 04:42:30;;;;;;;21.17;4.73;;;;;;;8.11;95.79;102999.28;7388881;19;20018;-77
2022/05/08 04:44:59;;;;;;;17.52;4.53;;;;;;;8.08;95.52;103005.22;7388892;19;20284;-77
2022/05/08 04:47:30;;;;;;;14.70;4.90;;;;;;;8.07;95.63;103002.53;7388080;19;20011;-71
2022/05/08 04:50:00;;;;;;;20.08;4.05;;;;;;;8.10;95.44;103006.22;7378913;19;20035;-72
2022/05/08 04:52:31;;;;;;;11.85;4.80;;;;;;;8.15;95.30;103007.38;7377586;19;20014;-71
2022/05/08 04:55:04;;;;;;;13.90;4.55;;;;;;;8.25;94.92;103010.53;7376603;19;20010;-73
2022/05/08 04:57:40;;;;;;;15.25;4.80;;;;;;;8.23;94.13;103006.91;7378824;19;20059;-79
2022/05/08 05:00:11;;;;;;;13.83;4.50;;;;;;;8.33;94.03;103012.75;7382845;19;20032;-72
2022/05/08 05:02:44;;;;;;;17.77;5.05;;;;;;;8.31;93.65;103017.00;7383133;19;20232;-78
2022/05/08 05:05:14;;;;;;;16.10;4.43;;;;;;;8.41;92.84;103023.66;7382126;19;20050;-78
2022/05/08 05:07:44;;;;;;;10.85;4.18;;;;;;;8.41;93.01;103019.31;7384713;19;20507;-78
2022/05/08 05:10:19;;;;;;;25.00;5.53;;;;;;;8.51;92.58;103020.75;7378996;19;20010;-74
2022/05/08 05:12:52;;;;;;;12.00;3.78;;;;;;;8.63;92.02;103028.38;7379586;19;20005;-79
2022/05/08 05:15:24;;;;;;;13.25;4.20;;;;;;;8.75;91.67;103029.97;7380187;19;20038;-78
2022/05/08 05:17:58;;;;;;;15.05;5.70;;;;;;;8.94;90.56;103025.75;7379461;19;20490;-70
2022/05/08 05:20:28;;;;;;;17.77;4.50;;;;;;;9.09;89.46;103026.56;7376645;19;20014;-72
2022/05/08 05:23:07;;;;;;;20.38;5.82;;;;;;;9.23;88.45;103033.47;7372854;19;20006;-72
2022/05/08 05:25:40;;;;;;;13.65;6.03;;;;;;;9.35;88.10;103031.50;7376640;19;20022;-71
2022/05/08 05:28:12;;;;;;;17.48;4.90;;;;;;;9.46;86.90;103034.66;7373873;19;20085;-72
2022/05/08 05:30:45;;;;;;;15.60;4.30;;;;;;;9.58;85.99;103027.44;7375007;19;20059;-72
2022/05/08 05:33:20;;;;;;;21.60;4.97;;;;;;;9.75;85.44;103029.19;7373603;19;20070;-78
2022/05/08 05:35:51;;;;;;;18.20;5.18;;;;;;;9.87;83.46;103034.16;7377920;19;20010;-77
2022/05/08 05:38:22;;;;;;;15.90;5.03;;;;;;;10.07;82.32;103033.47;7375510;19;20067;-77
2022/05/08 05:40:55;;;;;;;17.63;4.05;;;;;;;10.26;82.11;103030.06;7379528;19;20345;-72
2022/05/08 05:43:26;;;;;;;19.60;4.85;;;;;;;10.40;80.87;103035.97;7373369;19;20011;-72
2022/05/08 05:48:41;;;;;;;17.95;4.55;;;;;;;10.65;78.63;103035.41;7378458;19;20447;-72
2022/05/08 05:51:11;;;;;;;20.10;4.25;;;;;;;10.58;77.23;103039.47;7383723;19;20007;-72
2022/05/08 05:53:41;;;;;;;17.30;4.82;;;;;;;10.81;77.48;103038.84;7376440;19;20021;-78
2022/05/08 05:56:13;;;;;;;11.15;3.88;;;;;;;10.90;75.52;103027.88;7380033;19;20022;-71
2022/05/08 05:58:43;;;;;;;19.33;5.28;;;;;;;11.05;74.69;103032.94;7383707;19;20006;-77
2022/05/08 06:01:13;;;;;;;15.70;4.55;;;;;;;11.19;74.98;103037.09;7380052;19;20010;-72
2022/05/08 06:03:44;;;;;;;12.18;3.88;;;;;;;11.26;72.91;103039.16;7380897;19;20078;-71
2022/05/08 06:06:14;;;;;;;13.63;3.92;;;;;;;11.50;72.37;103036.72;7381415;19;20014;-77
2022/05/08 06:08:46;;;;;;;16.02;4.30;;;;;;;11.42;71.96;103033.78;7384176;19;20246;-77
2022/05/08 06:11:22;;;;;;;15.63;3.83;;;;;;;11.69;71.18;103044.56;7382773;19;20010;-77
2022/05/08 06:13:52;;;;;;;15.27;3.92;;;;;;;11.78;70.37;103049.38;7381660;19;20014;-72
2022/05/08 06:16:22;;;;;;;14.23;4.72;;;;;;;11.82;70.14;103053.94;7384935;19;20014;-70
2022/05/08 06:18:52;;;;;;;17.63;5.18;;;;;;;11.99;70.13;103050.28;7384989;19;20440;-71
2022/05/08 06:21:25;;;;;;;13.30;4.18;;;;;;;12.21;68.87;103053.84;7385627;19;20014;-77
2022/05/08 06:23:56;;;;;;;22.13;4.70;;;;;;;12.33;68.89;103054.34;7384786;19;20487;-77
2022/05/08 06:26:32;;;;;;;13.50;3.70;;;;;;;12.44;67.73;103053.06;7385893;19;20015;-71
2022/05/08 06:29:02;;;;;;;16.88;4.78;;;;;;;12.42;67.67;103059.97;7383303;19;20475;-78
2022/05/08 06:31:32;;;;;;;13.00;4.07;;;;;;;12.35;66.52;103064.09;7388568;19;20022;-76
2022/05/08 06:34:03;;;;;;;13.40;4.38;;;;;;;12.39;67.02;103062.50;7387903;19;20476;-71
2022/05/08 06:36:34;;;;;;;16.40;3.80;;;;;;;12.48;66.24;103065.47;7390594;19;20035;-77
2022/05/08 06:39:07;;;;;;;11.43;3.95;;;;;;;12.67;65.85;103068.00;7388836;19;20814;-77
2022/05/08 06:41:40;;;;;;;10.60;3.80;;;;;;;12.83;65.05;103058.09;7385997;19;20398;-71
2022/05/08 06:44:10;;;;;;;13.23;3.80;;;;;;;12.82;64.91;103066.81;7387491;19;20024;-77
2022/05/08 06:46:40;;;;;;;12.52;4.30;;;;;;;13.05;63.87;103063.34;7390473;19;20271;-78
2022/05/08 06:49:12;;;;;;;13.98;4.32;;;;;;;13.29;63.76;103066.03;7382791;19;20007;-72
2022/05/08 06:51:44;;;;;;;17.38;4.38;;;;;;;13.30;63.44;103071.38;7383850;19;20011;-77
2022/05/08 06:54:17;;;;;;;14.93;4.32;;;;;;;13.39;62.13;103068.19;7381475;19;20024;-78
2022/05/08 06:56:55;;;;;;;11.48;4.00;;;;;;;13.51;62.64;103068.63;7382510;19;20404;-78
2022/05/08 07:02:12;;;;;;;11.38;3.53;;;;;;;13.38;61.31;103071.66;7379999;19;20500;-71
2022/05/08 07:04:42;;;;;;;12.60;3.83;;;;;;;13.45;60.95;103076.31;7377680;19;20006;-72
2022/05/08 07:07:13;;;;;;;19.98;4.32;;;;;;;13.24;61.57;103073.78;7373948;19;20022;-72
2022/05/08 07:09:43;;;;;;;14.15;3.75;;;;;;;13.57;61.56;103068.81;7378115;19;20019;-72
2022/05/08 07:12:27;;;;;;;12.55;3.58;;;;;;;13.50;61.09;103071.22;7374504;19;20018;-72
2022/05/08 07:14:58;;;;;;;10.25;3.38;;;;;;;13.47;60.53;103081.66;7379677;19;20428;-71
2022/05/08 07:17:29;;;;;;;12.07;3.35;;;;;;;13.10;61.47;103086.41;7375733;19;20013;-70
2022/05/08 07:20:01;;;;;;;14.95;3.90;;;;;;;13.66;60.70;103081.44;7382607;19;20387;-71
2022/05/08 07:22:34;;;;;;;14.30;4.43;;;;;;;13.82;60.70;103077.63;7376557;19;20015;-72
2022/05/08 07:25:04;;;;;;;19.33;4.38;;;;;;;13.78;59.83;103079.25;7381382;19;20479;-71
2022/05/08 07:27:42;;;;;;;15.52;3.67;;;;;;;13.89;59.48;103087.53;7383182;19;20009;-72
2022/05/08 07:30:13;;;;;;;13.90;3.40;;;;;;;14.06;59.25;103086.41;7382041;19;20010;-71
2022/05/08 07:32:44;;;;;;;15.75;4.05;;;;;;;14.18;58.72;103089.47;7382544;19;20027;-76
2022/05/08 07:37:57;;;;;;;12.65;3.90;;;;;;;14.65;57.47;103091.03;7377280;19;20002;-71
2022/05/08 07:40:29;;;;;;;14.60;5.10;;;;;;;13.80;58.56;103098.66;7378692;19;20402;-78
2022/05/08 07:43:01;;;;;;;13.82;3.80;;;;;;;14.24;58.34;103099.31;7377611;19;20328;-72
2022/05/08 07:45:31;;;;;;;17.48;4.22;;;;;;;14.28;57.65;103094.22;7380821;19;20335;-74
2022/05/08 07:48:02;;;;;;;12.75;3.88;;;;;;;13.93;58.19;103092.97;7376245;19;20570;-75
2022/05/08 07:50:32;;;;;;;11.57;4.07;;;;;;;14.57;58.02;103091.63;7381087;19;20007;-76
2022/05/08 07:53:02;;;;;;;14.93;3.83;;;;;;;14.92;56.94;103091.03;7375654;19;20019;-75
2022/05/08 07:55:32;;;;;;;15.00;3.60;;;;;;;15.00;56.06;103091.25;7383600;19;20028;-79
2022/05/08 07:58:09;;;;;;;16.10;4.28;;;;;;;14.50;56.48;103097.59;7389904;19;20018;-79
2022/05/08 08:00:40;;;;;;;14.35;3.85;;;;;;;14.88;55.71;103098.81;7390158;19;20026;-80
2022/05/08 08:03:10;;;;;;;12.38;3.58;;;;;;;14.48;56.00;103102.81;7382468;19;20010;-72
2022/05/08 08:05:41;;;;;;;11.98;3.78;;;;;;;14.58;56.25;103104.88;7378683;19;20011;-72
2022/05/08 08:08:31;;;;;;;11.20;3.97;;;;;;;14.61;56.51;103104.09;7385936;19;20679;-80
2022/05/08 08:11:07;;;;;;;13.88;3.90;;;;;;;14.86;56.13;103105.78;7382706;19;20519;-73
2022/05/08 08:13:45;;;;;;;13.00;3.70;;;;;;;15.01;55.67;103100.97;7379901;19;20018;-72
2022/05/08 08:16:19;;;;;;;12.70;3.83;;;;;;;14.67;56.33;103096.38;7380379;19;20042;-73
2022/05/08 08:18:56;;;;;;;10.40;4.18;;;;;;;14.99;55.58;103094.75;7378101;19;20011;-72
2022/05/08 08:21:27;;;;;;;12.80;3.80;;;;;;;15.23;55.60;103095.50;7379126;19;20137;-73
2022/05/08 08:23:57;;;;;;;11.75;3.30;;;;;;;15.22;54.55;103090.16;7378592;19;20420;-81
2022/05/08 08:26:30;;;;;;;13.52;4.10;;;;;;;15.47;54.33;103089.13;7390856;19;20010;-82
2022/05/08 08:29:07;;;;;;;12.13;4.00;;;;;;;15.65;53.83;103101.13;7378657;19;20043;-73
2022/05/08 08:31:40;;;;;;;11.27;3.28;;;;;;;15.85;53.67;103095.50;7374652;19;20073;-73
2022/05/08 08:34:13;;;;;;;12.15;3.70;;;;;;;15.73;53.58;103100.47;7379823;19;20019;-73
2022/05/08 08:36:44;;;;;;;14.65;4.10;;;;;;;16.26;52.89;103091.31;7379821;19;20044;-73
2022/05/08 08:39:14;;;;;;;12.25;4.30;;;;;;;15.79;52.51;103098.88;7375580;19;20090;-73
2022/05/08 08:41:51;;;;;;;9.00;3.42;;;;;;;15.73;52.84;103101.34;7373891;19;20018;-73
2022/05/08 08:50:04;;;;;;;11.38;3.50;;;;;;;16.17;50.96;103102.56;7374185;19;20522;-71
2022/05/08 08:52:38;;;;;;;14.75;3.60;;;;;;;16.30;50.75;103101.13;7370748;19;20023;-71
2022/05/08 08:55:11;;;;;;;12.18;3.40;;;;;;;16.72;50.71;103096.00;7374756;19;20015;-70
2022/05/08 08:57:42;;;;;;;9.10;2.83;;;;;;;16.76;50.46;103099.63;7374906;19;20077;-79
2022/05/08 09:00:16;;;;;;;15.27;4.05;;;;;;;16.72;51.25;103090.69;7379771;19;20018;-78
2022/05/08 09:02:47;;;;;;;17.48;5.15;;;;;;;16.81;50.23;103087.38;7378905;19;20481;-79
2022/05/08 09:05:18;;;;;;;8.75;3.35;;;;;;;16.49;50.35;103087.50;7380005;19;20517;-79
2022/05/08 09:07:53;;;;;;;11.25;3.70;;;;;;;16.48;51.23;103091.00;7373432;19;20011;-79
2022/05/08 09:10:25;;;;;;;13.15;4.13;;;;;;;17.19;50.19;103083.81;7384901;19;20809;-79
2022/05/08 09:13:07;;;;;;;9.70;3.75;;;;;;;16.97;49.62;103092.16;7379795;19;20007;-79
2022/05/08 09:15:42;;;;;;;11.88;3.67;;;;;;;17.27;49.34;103087.53;7378741;19;20074;-79
2022/05/08 09:18:14;;;;;;;12.77;4.22;;;;;;;17.24;49.43;103091.88;7375250;19;20415;-71
2022/05/08 09:20:47;;;;;;;13.35;4.18;;;;;;;16.98;49.07;103093.94;7372511;19;20051;-71
2022/05/08 09:23:18;;;;;;;11.63;3.47;;;;;;;17.10;48.34;103094.22;7378358;19;20787;-70
2022/05/08 09:25:55;;;;;;;14.52;4.30;;;;;;;17.14;48.40;103090.78;7383896;19;20490;-71
2022/05/08 09:28:42;;;;;;;10.70;4.05;;;;;;;17.62;48.75;103082.06;7385072;19;20018;-78
2022/05/08 09:31:16;;;;;;;11.88;3.60;;;;;;;17.25;49.50;103099.88;7387313;19;20444;-71
2022/05/08 09:33:52;;;;;;;12.15;3.75;;;;;;;17.25;49.92;103086.59;7384416;19;20504;-70
2022/05/08 09:36:24;;;;;;;12.77;3.67;;;;;;;17.74;49.53;103089.38;7382769;19;20027;-71
2022/05/08 09:38:55;;;;;;;11.55;3.78;;;;;;;17.46;48.94;103086.16;7380770;19;20007;-70
2022/05/08 09:41:30;;;;;;;;;;;;;;;17.57;48.09;103086.38;7390695;19;20043;-70
2022/05/08 09:44:12;;;;;;;11.95;4.20;;;;;;;18.05;47.59;103083.75;7383513;19;19925;-70
2022/05/08 09:46:46;;;;;;;11.15;3.55;;;;;;;18.01;47.10;103081.91;7386704;19;20019;-70
2022/05/08 09:49:22;;;;;;;10.15;3.38;;;;;;;17.79;47.43;103077.97;7380338;19;20006;-69
2022/05/08 09:51:53;;;;;;;8.60;3.35;;;;;;;18.06;47.11;103074.94;7384586;19;20014;-70
2022/05/08 09:54:23;;;;;;;10.77;3.50;;;;;;;18.37;47.40;103079.00;7380551;19;20011;-70
2022/05/08 09:56:53;;;;;;;10.73;3.30;;;;;;;18.44;46.07;103080.00;7388250;19;20048;-69
2022/05/08 09:59:23;;;;;;;9.88;3.30;;;;;;;18.29;45.13;103073.56;7387042;19;20014;-70
2022/05/08 10:01:55;;;;;;;11.90;3.30;;;;;;;18.57;46.09;103074.91;7380551;19;20387;-71
2022/05/08 10:04:27;;;;;;;10.30;3.08;;;;;;;18.72;45.56;103066.28;7378584;19;20014;-70
2022/05/08 10:06:57;;;;;;;12.32;3.42;;;;;;;17.98;45.39;103087.19;7384643;19;20094;-70
2022/05/08 10:14:53;;;;;;;10.48;3.28;;;;;;;19.12;43.73;103064.19;7385564;19;20380;-73
2022/05/08 10:17:43;;;;;;;;;;;;;;;;;;;;;
2022/05/08 10:21:06;;;;;;;7.45;2.65;;;;;;;18.39;43.82;103068.41;7378733;19;20035;-77
2022/05/08 10:23:42;;;;;;;7.40;2.80;;;;;;;18.91;43.76;103059.47;7382572;19;20533;-78
2022/05/08 10:26:18;;;;;;;12.05;3.45;;;;;;;18.92;42.51;103059.50;7384903;19;20461;-72
2022/05/08 10:29:16;;;;;;;12.02;3.05;;;;;;;18.82;43.71;103062.88;7383618;19;20007;-78
2022/05/08 10:31:48;;;;;;;9.70;2.85;;;;;;;18.88;43.13;103062.97;7383598;19;20023;-78
2022/05/08 10:34:34;;;;;;;7.00;2.85;;;;;;;19.26;42.65;103066.16;7378543;19;20070;-78
2022/05/08 10:37:32;;;;;;;9.15;2.90;;;;;;;19.13;42.69;103056.22;7379026;19;20017;-78
2022/05/08 10:40:03;;;;;;;11.55;3.42;;;;;;;19.49;42.66;103046.91;7379113;19;20011;-72
2022/05/08 10:42:48;;;;;;;9.93;3.75;;;;;;;19.38;41.98;103059.19;7380388;19;20023;-74
2022/05/08 10:45:33;;;;;;;;;;;;;;;19.54;42.58;103061.19;7375557;19;20006;-73
2022/05/08 10:48:07;;;;;;;8.13;2.72;;;;;;;19.58;42.19;103055.94;7378185;19;19919;-77
2022/05/08 10:50:41;;;;;;;7.95;2.67;;;;;;;19.07;42.62;103063.22;7376644;19;20082;-79
2022/05/08 10:53:27;;;;;;;7.65;2.92;;;;;;;19.05;43.44;103057.88;7375332;19;20464;-75
2022/05/08 10:56:04;;;;;;;7.82;2.90;;;;;;;19.28;42.04;103061.75;7377421;19;20051;-76
2022/05/08 10:58:40;;;;;;;12.73;3.05;;;;;;;18.90;41.80;103055.91;7376483;19;20007;-73
2022/05/08 11:01:13;;;;;;;6.97;2.70;;;;;;;18.43;43.06;103063.16;7377002;19;20018;-76
2022/05/08 11:03:43;;;;;;;;;;;;;;;18.63;43.85;103060.88;7376286;19;20013;-77
2022/05/08 11:06:23;;;;;;;10.65;3.15;;;;;;;18.58;42.92;103058.09;7379717;19;19921;-72
2022/05/08 11:09:01;;;;;;;10.60;2.85;;;;;;;19.00;43.35;103056.94;7381635;19;20233;-73
2022/05/08 11:11:32;;;;;;;6.15;2.60;;;;;;;18.47;42.90;103051.72;7383294;19;20037;-77
2022/05/08 11:14:02;;;;;;;10.90;2.75;;;;;;;19.00;42.75;103058.69;7383585;19;20024;-73
2022/05/08 11:16:42;;;;;;;7.45;2.60;;;;;;;18.90;42.81;103057.69;7384006;19;20018;-73
2022/05/08 11:19:12;;;;;;;10.27;3.15;;;;;;;18.97;43.33;103046.25;7382356;19;20021;-78
2022/05/08 11:21:49;;;;;;;9.32;2.85;;;;;;;19.25;43.29;103053.72;7381281;19;20010;-78
2022/05/08 11:24:26;;;;;;;7.55;2.83;;;;;;;19.57;42.09;103056.81;7379446;19;20024;-73
2022/05/08 11:26:56;;;;;;;9.32;3.15;;;;;;;19.28;40.91;103053.75;7380658;19;20031;-73
2022/05/08 11:29:26;;;;;;;9.30;3.13;;;;;;;19.11;41.62;103054.41;7381412;19;20027;-77
2022/05/08 11:37:40;;;;;;;8.52;3.35;;;;;;;19.19;41.70;103048.31;7378429;19;20039;-72
2022/05/08 11:40:12;;;;;;;10.98;3.55;;;;;;;18.95;41.83;103045.34;7384894;19;20007;-71
2022/05/08 11:42:44;;;;;;;11.48;3.00;;;;;;;19.04;42.22;103040.16;7383618;19;20006;-71
2022/05/08 11:45:15;;;;;;;6.80;2.65;;;;;;;18.99;41.45;103039.19;7381456;19;20018;-71
2022/05/08 11:47:53;;;;;;;8.20;2.90;;;;;;;19.01;41.48;103040.09;7381504;19;20003;-72
2022/05/08 11:50:24;;;;;;;8.90;2.90;;;;;;;19.33;41.03;103037.84;7383839;19;20006;-71
2022/05/08 11:53:07;;;;;;;6.90;2.60;;;;;;;19.64;41.28;103036.47;7377755;19;20313;-72
2022/05/08 11:55:49;;;;;;;5.60;2.60;;;;;;;19.67;41.01;103033.84;7383593;19;20066;-76
2022/05/08 11:58:33;;;;;;;6.93;2.63;;;;;;;20.00;40.66;103022.59;7384352;19;20007;-77
2022/05/08 12:01:03;;;;;;;8.38;2.78;;;;;;;19.82;40.45;103023.31;7386039;19;20781;-73
2022/05/08 12:03:33;;;;;;;9.57;3.25;;;;;;;19.78;40.20;103026.81;7382230;19;20010;-71
2022/05/08 12:06:12;;;;;;;8.73;2.85;;;;;;;19.74;40.08;103027.69;7378249;19;20474;-76
2022/05/08 12:08:48;;;;;;;6.43;2.60;;;;;;;19.72;40.39;103029.44;7380169;19;20416;-76
2022/05/08 12:11:33;;;;;;;8.00;2.55;;;;;;;20.17;40.21;103028.06;7381733;19;20010;-78
2022/05/08 12:14:06;;;;;;;6.72;2.80;;;;;;;20.27;39.88;103029.91;7382921;19;20021;-76
2022/05/08 12:16:42;;;;;;;8.13;2.83;;;;;;;19.54;40.31;103022.16;7378621;19;20014;-71
2022/05/08 12:19:19;;;;;;;9.82;2.95;;;;;;;19.65;40.57;103022.28;7378416;19;20007;-79
2022/05/08 12:21:50;;;;;;;8.18;3.08;;;;;;;19.05;40.40;103019.75;7378466;19;20002;-72
2022/05/08 12:24:24;;;;;;;7.43;2.63;;;;;;;19.66;40.46;103012.53;7375958;19;20035;-77
2022/05/08 12:26:54;;;;;;;9.68;3.20;;;;;;;19.96;40.07;103019.88;7371857;19;20827;-73